Thursday, January 17, 2019, 8:28 PM EST
Back to Local

KTTN, Trenton Mercer County Airport

Location: Trenton, NJ, United States Lat: 40.283
Local Time: 8:28 PM EST ( 1:28 GMT) Lon: -74.817
Time Zone: US/Eastern Elev: 213 ft

Show me the last for .
Show Decoded

2019-01-17 19:53 METAR KTTN 180053Z 11004KT 10SM OVC050 M01/M07 A3027 RMK AO2 SLP247 T10111072 =
2019-01-17 18:53 METAR KTTN 172353Z 14005KT 10SM SCT120 M01/M08 A3029 RMK AO2 SLP253 T10111078
                 10000 21011 56002 =
2019-01-17 17:53 METAR KTTN 172253Z 13007KT 10SM CLR M01/M09 A3030 RMK AO2 SLP255 T10111089 =
2019-01-17 16:53 METAR KTTN 172153Z 12008KT 10SM CLR 00/M12 A3029 RMK AO2 SLP252 T00001122 =
2019-01-17 15:53 METAR KTTN 172053Z 14006KT 10SM SCT120 00/M13 A3030 RMK AO2 SLP255 T00001128
                 55014 =
2019-01-17 14:53 METAR KTTN 171953Z 10006KT 10SM CLR 00/M13 A3029 RMK AO2 SLP254 T00001133 =
2019-01-17 13:53 METAR KTTN 171853Z 15006KT 10SM CLR 00/M14 A3033 RMK AO2 SLP267 T00001139 =
2019-01-17 12:53 METAR KTTN 171753Z 00000KT 10SM CLR M01/M14 A3034 RMK AO2 SLP270 T10061144 11006
                 21044 58023 =
2019-01-17 11:53 METAR KTTN 171653Z 00000KT 10SM CLR M01/M14 A3038 RMK AO2 SLP283 T10061144 =
2019-01-17 10:53 METAR KTTN 171553Z 06004KT 10SM CLR M01/M14 A3041 RMK AO2 SLP294 T10111144 =
2019-01-17 09:53 METAR KTTN 171453Z 01007KT 10SM CLR M02/M15 A3041 RMK AO2 SLP293 T10171150 51014
                 =
2019-01-17 08:53 METAR KTTN 171353Z 03008KT 10SM CLR M03/M14 A3040 RMK AO2 SLP289 T10281139 =
2019-01-17 07:53 METAR KTTN 171253Z 35006KT 10SM CLR M04/M13 A3038 RMK AO2 SLP284 T10391128 =
2019-01-17 06:53 METAR KTTN 171153Z 35004KT 10SM CLR M04/M12 A3037 RMK AO2 SLP279 T10391122 10006
                 21039 53019 =
2019-01-17 05:53 METAR KTTN 171053Z 33006KT 10SM CLR M03/M12 A3034 RMK AO2 SLP271 T10281122 =
2019-01-17 04:53 METAR KTTN 170953Z AUTO 36007KT 10SM CLR M02/M10 A3033 RMK AO2 SLP265 T10221100
                 =
2019-01-17 03:53 METAR KTTN 170853Z AUTO 34006KT 10SM CLR M02/M09 A3031 RMK AO2 SLP260 T10171094
                 51018 =
2019-01-17 02:53 METAR KTTN 170753Z AUTO 35008KT 10SM CLR M01/M09 A3030 RMK AO2 SLP258 T10111089
                 =
2019-01-17 01:53 METAR KTTN 170653Z AUTO 00000KT 10SM CLR M01/M09 A3028 RMK AO2 SLP249 T10061094
                 =
2019-01-17 00:53 METAR KTTN 170553Z AUTO 33007KT 10SM CLR 01/M08 A3026 RMK AO2 SLP242 T00061083
                 10028 21006 51019 =
2019-01-16 23:53 METAR KTTN 170453Z AUTO 29006KT 10SM CLR 01/M06 A3024 RMK AO2 SLP236 T00111056
                 400391056 =
2019-01-16 22:53 METAR KTTN 170353Z AUTO 28004KT 10SM OVC049 02/M05 A3022 RMK AO2 SLP230
                 T00171050 =
2019-01-16 21:53 METAR KTTN 170253Z 27006KT 10SM OVC048 02/M05 A3020 RMK AO2 SLP223 T00221050
                 53017 =
2019-01-16 20:53 METAR KTTN 170153Z 27005KT 10SM CLR 02/M06 A3018 RMK AO2 SLP215 T00171056 =

Support USWX by starting your Amazon purchase here.